Time;durP1;ratioP1;P1;durP2;ratioP2;P2;SDS_P1;SDS_P2;PMS_P1;PMS_P2;Temp;Humidity;BMP_temperature;BMP_pressure;BME280_temperature;BME280_humidity;BME280_pressure;Samples;Min_cycle;Max_cycle;Signal;HPM_P1;HPM_P2
2022/12/04 00:02:00;;;;;;;124.70;48.77;;;-0.30;99.90;;;;;;5223281;28;20179;-51
2022/12/04 00:04:31;;;;;;;148.53;49.80;;;-0.30;99.90;;;;;;5224579;28;20175;-52
2022/12/04 00:07:01;;;;;;;153.93;50.33;;;-0.30;99.90;;;;;;5223741;28;20191;-52
2022/12/04 00:09:32;;;;;;;140.57;49.83;;;-0.20;99.90;;;;;;5220643;28;20177;-51
2022/12/04 00:12:03;;;;;;;130.63;47.90;;;-0.30;99.90;;;;;;5207076;28;20182;-51
2022/12/04 00:14:34;;;;;;;127.60;47.43;;;-0.30;99.90;;;;;;5214435;28;20248;-52
2022/12/04 00:17:04;;;;;;;134.67;48.90;;;-0.30;99.90;;;;;;5229973;28;20811;-51
2022/12/04 00:19:35;;;;;;;143.93;46.90;;;-0.30;99.90;;;;;;5230961;28;20195;-53
2022/12/04 00:22:06;;;;;;;137.20;50.80;;;-0.30;99.90;;;;;;5208264;28;20347;-50
2022/12/04 00:24:36;;;;;;;129.87;48.40;;;-0.20;99.90;;;;;;5228797;28;20253;-49
2022/12/04 00:27:07;;;;;;;134.47;48.97;;;-0.30;99.90;;;;;;5212109;28;20195;-50
2022/12/04 00:29:37;;;;;;;143.53;50.33;;;-0.30;99.90;;;;;;5233707;28;20191;-51
2022/12/04 00:32:10;;;;;;;140.97;48.40;;;-0.30;99.90;;;;;;5221144;28;20211;-49
2022/12/04 00:34:41;;;;;;;138.13;49.27;;;-0.30;99.90;;;;;;5212896;28;20215;-50
2022/12/04 00:37:11;;;;;;;144.43;49.30;;;-0.30;99.90;;;;;;5207578;28;20899;-49
2022/12/04 00:39:42;;;;;;;145.87;51.23;;;-0.30;99.90;;;;;;5229816;28;20190;-50
2022/12/04 00:42:12;;;;;;;143.50;49.83;;;-0.30;99.90;;;;;;5214194;28;20206;-51
2022/12/04 00:44:43;;;;;;;142.93;52.53;;;-0.30;99.90;;;;;;5230211;28;20662;-51
2022/12/04 00:47:14;;;;;;;133.17;48.93;;;-0.30;99.90;;;;;;5228005;28;20221;-50
2022/12/04 00:49:44;;;;;;;143.50;50.00;;;-0.30;99.90;;;;;;5209288;28;20190;-52
2022/12/04 00:52:15;;;;;;;123.13;48.20;;;-0.20;99.90;;;;;;5226510;28;20207;-51
2022/12/04 00:54:45;;;;;;;135.03;48.40;;;-0.20;99.90;;;;;;5225946;28;20211;-51
2022/12/04 00:57:16;;;;;;;128.87;46.67;;;-0.20;99.90;;;;;;5226193;28;20196;-51
2022/12/04 00:59:47;;;;;;;130.80;50.03;;;-0.20;99.90;;;;;;5223355;28;20191;-50
2022/12/04 01:02:17;;;;;;;154.50;50.20;;;-0.20;99.90;;;;;;5206078;28;20199;-50
2022/12/04 01:04:48;;;;;;;140.20;50.70;;;-0.20;99.90;;;;;;5226207;28;20223;-51
2022/12/04 01:07:18;;;;;;;133.20;50.23;;;-0.20;99.90;;;;;;5226288;28;20684;-52
2022/12/04 01:09:49;;;;;;;141.50;51.07;;;-0.20;99.90;;;;;;5207852;28;20225;-52
2022/12/04 01:12:20;;;;;;;150.97;50.27;;;-0.20;99.90;;;;;;5207966;28;20326;-50
2022/12/04 01:14:50;;;;;;;142.07;52.90;;;-0.20;99.90;;;;;;5207291;28;20490;-50
2022/12/04 01:17:21;;;;;;;132.53;50.60;;;-0.20;99.90;;;;;;5225796;28;20191;-50
2022/12/04 01:19:52;;;;;;;144.03;51.60;;;-0.30;99.90;;;;;;5203831;28;20183;-51
2022/12/04 01:22:22;;;;;;;157.90;54.70;;;-0.30;99.90;;;;;;5207604;28;20215;-51
2022/12/04 01:24:56;;;;;;;155.07;52.63;;;-0.20;99.90;;;;;;5227694;28;20671;-51
2022/12/04 01:27:27;;;;;;;143.23;51.20;;;-0.20;99.90;;;;;;5220546;28;20178;-52
2022/12/04 01:29:57;;;;;;;131.63;50.73;;;-0.20;99.90;;;;;;5209132;28;20456;-50
2022/12/04 01:32:28;;;;;;;136.50;53.03;;;-0.20;99.90;;;;;;5229244;28;20218;-51
2022/12/04 01:34:59;;;;;;;136.90;50.77;;;-0.30;99.90;;;;;;5228164;28;20584;-51
2022/12/04 01:37:30;;;;;;;148.40;53.33;;;-0.20;99.90;;;;;;5235686;28;20249;-50
2022/12/04 01:40:01;;;;;;;161.33;56.97;;;-0.20;99.90;;;;;;5228115;28;20180;-50
2022/12/04 01:42:31;;;;;;;142.37;52.60;;;-0.20;99.90;;;;;;5230481;28;20459;-53
2022/12/04 01:45:38;;;;;;;152.73;53.87;;;-0.10;99.90;;;;;;5232223;28;20188;-53
2022/12/04 01:48:43;;;;;;;160.63;55.67;;;-0.20;99.90;;;;;;5203392;28;20183;-48
2022/12/04 01:51:36;;;;;;;173.87;59.60;;;-0.20;99.90;;;;;;5220118;28;20779;-51
2022/12/04 01:54:17;;;;;;;195.57;56.90;;;-0.20;99.90;;;;;;5226400;28;20469;-52
2022/12/04 01:56:56;;;;;;;190.53;59.23;;;-0.30;99.90;;;;;;5200575;28;20438;-51
2022/12/04 01:59:34;;;;;;;173.13;56.57;;;-0.20;99.90;;;;;;5204594;28;20441;-51
2022/12/04 02:02:08;;;;;;;172.13;59.03;;;-0.30;99.90;;;;;;5223167;28;20453;-50
2022/12/04 02:04:41;;;;;;;180.43;57.37;;;-0.20;99.90;;;;;;5206058;28;20437;-50
2022/12/04 02:07:11;;;;;;;190.37;60.47;;;-0.20;99.90;;;;;;5203620;28;20446;-51
2022/12/04 02:09:42;;;;;;;179.00;55.97;;;-0.20;99.90;;;;;;5204470;28;20448;-50
2022/12/04 02:12:34;;;;;;;170.87;56.03;;;-0.20;99.90;;;;;;5225285;28;20213;-51
2022/12/04 02:15:34;;;;;;;186.87;57.97;;;-0.30;99.90;;;;;;5225543;28;20210;-51
2022/12/04 02:18:33;;;;;;;176.30;57.60;;;-0.20;99.90;;;;;;5222540;28;20953;-49
2022/12/04 02:21:34;;;;;;;185.63;59.13;;;-0.30;99.90;;;;;;5219482;28;20476;-50
2022/12/04 02:24:22;;;;;;;176.53;58.63;;;-0.20;99.90;;;;;;5235483;22;21070;-49
2022/12/04 02:27:16;;;;;;;170.23;59.60;;;-0.20;99.90;;;;;;5201488;28;20598;-48
2022/12/04 02:30:02;;;;;;;194.67;58.10;;;-0.20;99.90;;;;;;5187476;28;20429;-49
2022/12/04 02:32:57;;;;;;;203.87;62.30;;;-0.20;99.90;;;;;;5221635;28;20436;-48
2022/12/04 02:36:07;;;;;;;197.50;60.60;;;-0.20;99.90;;;;;;5208304;28;20432;-48
2022/12/04 02:38:46;;;;;;;203.80;66.43;;;-0.20;99.90;;;;;;5230063;28;20435;-49
2022/12/04 02:41:26;;;;;;;180.47;58.87;;;-0.30;99.90;;;;;;5231119;28;20443;-48
2022/12/04 02:44:03;;;;;;;199.50;62.60;;;-0.20;99.90;;;;;;5224588;28;20461;-48
2022/12/04 02:46:46;;;;;;;199.73;62.80;;;-0.30;99.90;;;;;;5228310;28;20440;-48
2022/12/04 02:49:32;;;;;;;220.97;61.50;;;-0.30;99.90;;;;;;5240725;28;20432;-48
2022/12/04 02:52:08;;;;;;;201.77;63.47;;;-0.20;99.90;;;;;;5211592;28;20436;-48
2022/12/04 02:54:43;;;;;;;198.03;64.27;;;-0.30;99.90;;;;;;5252863;28;20468;-49
2022/12/04 02:57:25;;;;;;;201.17;63.50;;;-0.20;99.90;;;;;;5237610;28;20454;-50
2022/12/04 02:59:58;;;;;;;227.73;65.40;;;-0.20;99.90;;;;;;5221859;28;20941;-50
2022/12/04 03:02:33;;;;;;;194.73;58.50;;;-0.20;99.90;;;;;;5236468;28;20446;-48
2022/12/04 03:05:10;;;;;;;180.77;61.00;;;-0.20;99.90;;;;;;5234378;28;20435;-47
2022/12/04 03:07:50;;;;;;;186.33;61.17;;;-0.20;99.90;;;;;;5242824;28;20570;-49
2022/12/04 03:10:47;;;;;;;196.80;62.10;;;-0.30;99.90;;;;;;5225546;28;20433;-47
2022/12/04 03:13:22;;;;;;;201.33;61.07;;;-0.20;99.90;;;;;;5240182;28;20469;-49
2022/12/04 03:16:04;;;;;;;187.97;62.57;;;-0.20;99.90;;;;;;5218806;28;20441;-48
2022/12/04 03:18:43;;;;;;;212.13;60.23;;;-0.20;99.90;;;;;;5227761;28;20420;-49
2022/12/04 03:21:17;;;;;;;212.43;63.43;;;-0.20;99.90;;;;;;5240021;28;20444;-48
2022/12/04 03:23:55;;;;;;;176.90;59.50;;;-0.20;99.90;;;;;;5210514;28;20476;-49
2022/12/04 03:26:30;;;;;;;178.90;60.27;;;-0.20;99.90;;;;;;5239727;28;20485;-47
2022/12/04 03:29:20;;;;;;;196.73;62.50;;;-0.20;99.90;;;;;;5227957;28;20825;-48
2022/12/04 03:32:20;;;;;;;184.77;58.30;;;-0.20;99.90;;;;;;5240616;28;20512;-48
2022/12/04 03:35:11;;;;;;;172.93;57.13;;;-0.20;99.90;;;;;;5219001;28;20456;-48
2022/12/04 03:37:56;;;;;;;171.00;56.17;;;-0.20;99.90;;;;;;5239711;28;20448;-46
2022/12/04 03:40:45;;;;;;;194.60;59.53;;;-0.20;99.90;;;;;;5227089;28;20834;-49
2022/12/04 03:43:21;;;;;;;155.50;54.40;;;-0.10;99.90;;;;;;5224935;28;20828;-48
2022/12/04 03:46:14;;;;;;;169.23;55.77;;;-0.10;99.90;;;;;;5219426;28;20772;-47
2022/12/04 03:49:08;;;;;;;182.73;59.70;;;-0.10;99.90;;;;;;5208872;28;20924;-48
2022/12/04 03:51:53;;;;;;;155.77;53.37;;;0.00;99.90;;;;;;5247562;28;20429;-50
2022/12/04 03:54:32;;;;;;;169.00;54.00;;;-0.10;99.90;;;;;;5231534;28;20461;-50
2022/12/04 03:57:12;;;;;;;163.00;56.73;;;0.00;99.90;;;;;;5245500;28;20436;-48
2022/12/04 03:59:49;;;;;;;154.27;54.37;;;-0.10;99.90;;;;;;5238100;28;20963;-48
2022/12/04 04:02:23;;;;;;;189.43;56.60;;;0.00;99.90;;;;;;5248504;28;20503;-47
2022/12/04 04:04:58;;;;;;;143.77;49.63;;;0.00;99.90;;;;;;5245916;28;20436;-48
2022/12/04 04:07:35;;;;;;;144.07;53.37;;;-0.10;99.90;;;;;;5242914;28;20631;-47
2022/12/04 04:10:12;;;;;;;153.77;53.80;;;0.00;99.90;;;;;;5227207;28;20439;-48
2022/12/04 04:24:41;;;;;;;163.37;52.83;;;0.00;99.90;;;;;;5250168;28;20468;-48
2022/12/04 04:27:12;;;;;;;157.70;51.40;;;0.00;99.90;;;;;;5232397;28;20436;-49
2022/12/04 04:29:44;;;;;;;160.87;52.53;;;0.00;99.90;;;;;;5244520;28;20470;-48
2022/12/04 04:32:38;;;;;;;169.27;53.60;;;0.00;99.90;;;;;;5249499;28;20735;-48
2022/12/04 04:35:30;;;;;;;162.50;50.70;;;0.10;99.90;;;;;;5242160;28;21003;-47
2022/12/04 04:38:21;;;;;;;148.60;49.93;;;0.00;99.90;;;;;;5244201;28;20440;-49
2022/12/04 04:41:07;;;;;;;142.40;50.90;;;0.00;99.90;;;;;;5241777;28;20845;-48
2022/12/04 04:43:56;;;;;;;184.43;55.63;;;0.00;99.90;;;;;;5244104;28;20445;-50
2022/12/04 04:46:32;;;;;;;161.07;51.73;;;0.00;99.90;;;;;;5224899;28;20428;-47
2022/12/04 04:49:07;;;;;;;161.67;53.67;;;0.00;99.90;;;;;;5229045;28;20461;-48
2022/12/04 04:51:39;;;;;;;163.77;53.60;;;0.00;99.90;;;;;;5229083;28;20719;-48
2022/12/04 04:54:13;;;;;;;156.73;51.53;;;0.00;99.90;;;;;;5230955;28;20483;-48
2022/12/04 04:56:46;;;;;;;143.50;51.03;;;0.00;99.90;;;;;;5228490;28;20437;-47
2022/12/04 04:59:16;;;;;;;143.87;53.40;;;0.10;99.90;;;;;;5245779;28;20441;-47
2022/12/04 05:01:47;;;;;;;138.07;50.97;;;0.20;99.90;;;;;;5230880;28;20449;-48
2022/12/04 05:04:18;;;;;;;168.00;53.87;;;0.10;99.90;;;;;;5230240;28;20199;-48
2022/12/04 05:06:48;;;;;;;143.50;52.83;;;0.10;99.90;;;;;;5227822;28;20847;-49
2022/12/04 05:09:19;;;;;;;157.53;51.80;;;0.10;99.90;;;;;;5246575;28;20186;-48
2022/12/04 05:11:50;;;;;;;171.00;55.27;;;0.10;99.90;;;;;;5247760;28;20194;-47
2022/12/04 05:14:20;;;;;;;152.87;52.43;;;0.10;99.90;;;;;;5248541;28;20253;-47
2022/12/04 05:16:51;;;;;;;163.47;51.63;;;0.10;99.90;;;;;;5244502;28;20233;-48
2022/12/04 05:22:12;;;;;;;147.73;50.23;;;0.10;99.90;;;;;;5241473;28;20277;-49
2022/12/04 05:24:42;;;;;;;149.27;52.77;;;0.10;99.90;;;;;;5241300;28;20997;-48
2022/12/04 05:27:13;;;;;;;162.83;54.07;;;0.20;99.90;;;;;;5236008;28;20512;-47
2022/12/04 05:29:44;;;;;;;148.57;52.20;;;0.20;99.90;;;;;;5236316;28;20272;-47
2022/12/04 05:32:14;;;;;;;164.50;52.40;;;0.20;99.90;;;;;;5245332;28;20194;-48
2022/12/04 05:34:49;;;;;;;161.00;52.47;;;0.20;99.90;;;;;;5228232;28;20622;-49
2022/12/04 05:37:20;;;;;;;139.30;49.93;;;0.20;99.90;;;;;;5245456;28;20183;-47
2022/12/04 05:39:51;;;;;;;165.40;54.13;;;0.20;99.90;;;;;;5237848;28;20446;-48
2022/12/04 05:42:22;;;;;;;140.90;49.13;;;0.20;99.90;;;;;;5227993;28;20431;-48
2022/12/04 05:44:52;;;;;;;137.13;50.70;;;0.20;99.90;;;;;;5231481;28;20217;-48
2022/12/04 05:47:23;;;;;;;143.43;51.13;;;0.30;99.90;;;;;;5231377;28;20627;-46
2022/12/04 05:49:54;;;;;;;146.27;50.37;;;0.20;99.90;;;;;;5240539;28;20218;-48
2022/12/04 05:52:24;;;;;;;159.97;52.07;;;0.20;99.90;;;;;;5235083;28;20441;-47
2022/12/04 05:54:55;;;;;;;155.27;51.87;;;0.20;99.90;;;;;;5226247;28;20207;-48
2022/12/04 05:57:26;;;;;;;148.33;53.97;;;0.30;99.90;;;;;;5249596;28;20179;-47
2022/12/04 05:59:56;;;;;;;152.43;51.60;;;0.20;99.90;;;;;;5229840;28;20210;-49
2022/12/04 06:02:27;;;;;;;157.63;52.00;;;0.20;99.90;;;;;;5232795;28;20194;-47
2022/12/04 06:04:58;;;;;;;144.27;49.33;;;0.30;99.90;;;;;;5239997;28;20564;-48
2022/12/04 06:07:28;;;;;;;149.93;50.27;;;0.40;99.90;;;;;;5241934;28;20604;-47
2022/12/04 06:09:59;;;;;;;138.93;49.37;;;0.30;99.90;;;;;;5246256;28;20275;-47
2022/12/04 06:12:29;;;;;;;136.70;50.57;;;0.30;99.90;;;;;;5236306;28;20225;-48
2022/12/04 06:15:00;;;;;;;152.47;52.27;;;0.30;99.90;;;;;;5225711;28;20206;-49
2022/12/04 06:17:31;;;;;;;149.07;52.13;;;0.30;99.90;;;;;;5243184;28;20188;-49
2022/12/04 06:20:01;;;;;;;152.50;50.53;;;0.30;99.90;;;;;;5238444;28;20187;-48
2022/12/04 06:22:32;;;;;;;150.97;49.60;;;0.30;99.90;;;;;;5242339;28;20183;-46
2022/12/04 06:25:03;;;;;;;148.27;52.43;;;0.30;99.90;;;;;;5241255;28;20678;-48
2022/12/04 06:27:33;;;;;;;151.47;51.90;;;0.30;99.90;;;;;;5209903;28;20225;-48
2022/12/04 06:30:05;;;;;;;126.93;48.73;;;0.30;99.90;;;;;;5224529;28;20197;-48
2022/12/04 06:32:35;;;;;;;151.93;50.53;;;0.20;99.90;;;;;;5234453;28;20190;-48
2022/12/04 06:35:06;;;;;;;145.93;51.13;;;0.30;99.90;;;;;;5243331;28;20437;-48
2022/12/04 06:37:37;;;;;;;146.20;50.57;;;0.40;99.90;;;;;;5220523;28;20329;-48
2022/12/04 06:40:08;;;;;;;146.23;51.43;;;0.30;99.90;;;;;;5247124;28;20440;-48
2022/12/04 06:42:39;;;;;;;128.13;48.87;;;0.30;99.90;;;;;;5226519;28;20227;-48
2022/12/04 06:45:10;;;;;;;160.33;51.90;;;0.40;99.90;;;;;;5232924;28;20499;-49
2022/12/04 06:47:40;;;;;;;142.60;49.63;;;0.30;99.90;;;;;;5232453;28;20190;-48
2022/12/04 06:50:12;;;;;;;137.63;50.00;;;0.30;99.90;;;;;;5224927;28;20444;-47
2022/12/04 06:52:43;;;;;;;131.13;49.73;;;0.40;99.90;;;;;;5249721;28;20195;-46
2022/12/04 06:55:13;;;;;;;141.43;49.17;;;0.40;99.90;;;;;;5239685;28;20433;-48
2022/12/04 06:57:44;;;;;;;141.87;52.03;;;0.40;99.90;;;;;;5215406;28;20179;-49
2022/12/04 07:00:15;;;;;;;142.20;51.60;;;0.30;99.90;;;;;;5224280;28;20179;-47
2022/12/04 07:02:45;;;;;;;161.50;52.50;;;0.40;99.90;;;;;;5224121;28;20217;-48
2022/12/04 07:05:16;;;;;;;151.77;52.93;;;0.40;99.90;;;;;;5209123;28;20470;-47
2022/12/04 07:07:47;;;;;;;138.43;48.53;;;0.40;99.90;;;;;;5225497;28;20237;-49
2022/12/04 07:10:17;;;;;;;155.27;52.17;;;0.30;99.90;;;;;;5236369;28;20232;-47
2022/12/04 07:12:48;;;;;;;133.67;49.70;;;0.50;99.90;;;;;;5238894;28;20205;-49
2022/12/04 07:15:19;;;;;;;131.10;51.07;;;0.40;99.90;;;;;;5232207;28;20194;-49
2022/12/04 07:17:49;;;;;;;154.57;52.20;;;0.40;99.90;;;;;;5233703;28;20177;-47
2022/12/04 07:20:20;;;;;;;144.00;49.97;;;0.40;99.90;;;;;;5223655;28;20655;-47
2022/12/04 07:22:51;;;;;;;161.07;49.70;;;0.40;99.90;;;;;;5240993;28;20220;-48
2022/12/04 07:25:22;;;;;;;169.70;50.03;;;0.40;99.90;;;;;;5246783;28;20186;-46
2022/12/04 07:27:52;;;;;;;147.70;47.73;;;0.40;99.90;;;;;;5250123;28;20183;-48
2022/12/04 07:30:23;;;;;;;147.50;50.17;;;0.40;99.90;;;;;;5251790;28;20515;-48
2022/12/04 07:32:54;;;;;;;162.13;51.90;;;0.40;99.90;;;;;;5241012;28;20201;-47
2022/12/04 07:35:24;;;;;;;146.23;51.90;;;0.40;99.90;;;;;;5247144;28;20170;-47
2022/12/04 07:37:55;;;;;;;147.93;50.60;;;0.50;99.90;;;;;;5245996;28;20267;-47
2022/12/04 07:40:25;;;;;;;132.73;48.73;;;0.40;99.90;;;;;;5253769;28;20191;-49
2022/12/04 07:42:56;;;;;;;156.33;50.90;;;0.50;99.90;;;;;;5256628;28;20231;-47
2022/12/04 07:45:27;;;;;;;125.13;50.30;;;0.40;99.90;;;;;;5207502;28;20550;-48
2022/12/04 07:47:57;;;;;;;147.10;50.00;;;0.50;99.90;;;;;;5229464;28;20188;-50
2022/12/04 07:50:28;;;;;;;146.03;50.37;;;0.50;99.90;;;;;;5223982;28;20205;-46
2022/12/04 07:52:58;;;;;;;133.53;48.80;;;0.50;99.90;;;;;;5247421;28;20211;-49
2022/12/04 07:55:29;;;;;;;146.27;50.70;;;0.60;99.90;;;;;;5244867;28;20186;-48
2022/12/04 07:58:00;;;;;;;142.87;48.17;;;0.50;99.90;;;;;;5245604;28;20643;-48
2022/12/04 08:00:30;;;;;;;120.50;45.63;;;0.50;99.90;;;;;;5242533;28;20174;-49
2022/12/04 08:03:01;;;;;;;130.73;46.27;;;0.60;99.90;;;;;;5244155;28;20289;-49
2022/12/04 08:05:32;;;;;;;127.23;48.03;;;0.60;99.90;;;;;;5244572;28;20201;-48
2022/12/04 08:08:02;;;;;;;123.67;48.30;;;0.60;99.90;;;;;;5246603;28;20261;-48
2022/12/04 08:10:33;;;;;;;133.93;50.67;;;0.60;99.90;;;;;;5230151;28;20223;-46
2022/12/04 08:13:04;;;;;;;154.93;49.80;;;0.60;99.90;;;;;;5244168;28;20218;-47
2022/12/04 08:15:34;;;;;;;133.47;48.97;;;0.60;99.90;;;;;;5237935;28;20622;-49
2022/12/04 08:18:05;;;;;;;132.90;48.57;;;0.60;99.90;;;;;;5249390;28;20192;-49
2022/12/04 08:20:35;;;;;;;132.37;46.33;;;0.60;99.90;;;;;;5233461;28;20227;-48
2022/12/04 08:23:06;;;;;;;127.50;46.70;;;0.60;99.90;;;;;;5241430;23;20242;-50
2022/12/04 08:25:39;;;;;;;116.93;46.67;;;0.60;99.90;;;;;;5227124;28;20175;-49
2022/12/04 08:28:10;;;;;;;144.87;48.90;;;0.60;99.90;;;;;;5244770;28;20283;-50
2022/12/04 08:30:41;;;;;;;128.03;46.57;;;0.60;99.90;;;;;;5261787;28;20433;-47
2022/12/04 08:33:11;;;;;;;126.17;47.30;;;0.60;99.90;;;;;;5247406;28;20472;-51
2022/12/04 08:35:42;;;;;;;137.97;50.20;;;0.60;99.90;;;;;;5241498;28;20184;-50
2022/12/04 08:38:13;;;;;;;127.97;47.20;;;0.60;99.90;;;;;;5233945;28;20201;-49
2022/12/04 08:40:43;;;;;;;166.50;50.30;;;0.70;99.90;;;;;;5225809;28;20189;-51
2022/12/04 08:43:14;;;;;;;124.13;46.03;;;0.70;99.90;;;;;;5245727;28;20660;-50
2022/12/04 08:46:03;;;;;;;130.33;47.53;;;0.70;99.90;;;;;;5238147;28;20242;-50
2022/12/04 08:48:34;;;;;;;128.53;49.00;;;0.70;99.90;;;;;;5226064;28;20637;-50
2022/12/04 08:51:07;;;;;;;127.47;45.20;;;0.70;99.90;;;;;;5232522;28;20448;-50
2022/12/04 08:53:37;;;;;;;139.33;48.87;;;0.70;99.90;;;;;;5242926;28;20622;-57
2022/12/04 08:56:08;;;;;;;133.13;46.23;;;0.70;99.90;;;;;;5224115;28;20431;-49
2022/12/04 08:58:39;;;;;;;120.03;46.60;;;0.70;99.90;;;;;;5237291;28;20229;-52
2022/12/04 09:01:13;;;;;;;152.70;50.33;;;0.70;99.90;;;;;;5225265;28;20476;-51
2022/12/04 09:03:43;;;;;;;138.37;48.20;;;0.80;99.90;;;;;;5247533;28;20202;-51
2022/12/04 09:06:15;;;;;;;123.00;45.87;;;0.80;99.90;;;;;;5230982;28;20458;-50
2022/12/04 09:08:45;;;;;;;124.60;46.70;;;0.80;99.90;;;;;;5233694;28;20302;-50
2022/12/04 09:11:19;;;;;;;123.57;45.03;;;0.80;99.90;;;;;;5236505;28;20435;-52
2022/12/04 09:13:50;;;;;;;135.47;48.00;;;0.80;99.90;;;;;;5228670;28;20210;-50
2022/12/04 09:16:22;;;;;;;128.97;44.23;;;0.80;99.90;;;;;;5227719;28;20801;-48
2022/12/04 09:18:54;;;;;;;140.10;49.67;;;0.80;99.90;;;;;;5227006;28;20555;-53
2022/12/04 09:21:25;;;;;;;128.47;44.00;;;0.90;99.90;;;;;;5260724;28;20461;-50
2022/12/04 09:23:55;;;;;;;134.17;46.73;;;0.90;99.90;;;;;;5239635;28;21059;-51
2022/12/04 09:26:29;;;;;;;127.33;46.63;;;0.90;99.90;;;;;;5239721;28;20190;-51
2022/12/04 09:29:04;;;;;;;113.77;46.07;;;0.90;99.90;;;;;;5244773;28;20207;-52
2022/12/04 09:31:34;;;;;;;119.77;47.00;;;0.80;99.90;;;;;;5242835;28;20440;-51
2022/12/04 09:34:05;;;;;;;130.43;48.80;;;0.90;99.90;;;;;;5224928;28;20481;-50
2022/12/04 09:36:37;;;;;;;137.27;42.57;;;0.90;99.90;;;;;;5225709;28;20196;-50
2022/12/04 09:39:09;;;;;;;136.03;45.50;;;0.90;99.90;;;;;;5243975;28;20183;-49
2022/12/04 09:42:09;;;;;;;145.70;46.50;;;0.90;99.90;;;;;;5227017;28;20439;-52
2022/12/04 09:45:07;;;;;;;132.80;46.30;;;0.90;99.90;;;;;;5241652;28;20842;-51
2022/12/04 09:47:53;;;;;;;131.87;45.97;;;0.90;99.90;;;;;;5232145;28;20525;-50
2022/12/04 09:50:42;;;;;;;130.37;45.70;;;0.90;99.90;;;;;;5240877;28;20447;-49
2022/12/04 09:53:21;;;;;;;124.60;47.10;;;1.00;99.90;;;;;;5245856;28;20521;-51
2022/12/04 09:56:05;;;;;;;128.30;41.90;;;0.90;99.90;;;;;;5209529;28;20797;-51
2022/12/04 09:58:39;;;;;;;136.77;44.23;;;1.00;99.90;;;;;;5237033;28;20434;-53
2022/12/04 10:01:21;;;;;;;129.70;44.30;;;1.00;99.90;;;;;;5234135;28;20758;-53
2022/12/04 10:03:54;;;;;;;106.43;43.77;;;1.00;99.90;;;;;;5220983;28;20508;-52
2022/12/04 10:06:35;;;;;;;133.23;46.40;;;1.00;99.90;;;;;;5222725;28;21100;-53
2022/12/04 10:09:20;;;;;;;118.83;42.13;;;1.10;99.90;;;;;;5241038;28;20435;-51
2022/12/04 10:12:17;;;;;;;132.27;43.60;;;1.10;99.90;;;;;;5231898;28;20481;-52
2022/12/04 10:14:50;;;;;;;119.10;42.77;;;1.00;99.90;;;;;;5251930;28;20500;-51
2022/12/04 10:17:42;;;;;;;119.40;43.93;;;1.10;99.90;;;;;;5223693;28;20480;-52
2022/12/04 10:20:46;;;;;;;124.27;43.90;;;1.10;99.90;;;;;;5241273;28;20939;-52
2022/12/04 10:23:31;;;;;;;126.20;42.67;;;1.10;99.90;;;;;;5219959;28;20480;-51
2022/12/04 10:26:09;;;;;;;124.30;42.53;;;1.10;99.90;;;;;;5220997;28;20847;-53
2022/12/04 10:28:44;;;;;;;121.57;45.83;;;1.10;99.90;;;;;;5222777;28;20433;-51
2022/12/04 10:31:15;;;;;;;114.07;42.97;;;1.20;99.90;;;;;;5220339;28;20453;-53
2022/12/04 10:33:48;;;;;;;119.83;45.17;;;1.10;99.90;;;;;;5210254;28;20487;-51
2022/12/04 10:36:27;;;;;;;125.13;44.07;;;1.20;99.90;;;;;;5228108;28;20456;-50
2022/12/04 10:38:59;;;;;;;122.93;44.33;;;1.20;99.90;;;;;;5218377;28;20511;-51
2022/12/04 10:41:32;;;;;;;113.00;42.00;;;1.20;99.90;;;;;;5233337;28;20781;-50
2022/12/04 10:44:03;;;;;;;128.47;45.77;;;1.20;99.90;;;;;;5212545;28;20470;-48
2022/12/04 10:46:34;;;;;;;122.93;46.47;;;1.20;99.90;;;;;;5230921;28;20442;-48
2022/12/04 10:49:18;;;;;;;122.20;43.87;;;1.20;99.90;;;;;;5238589;28;20446;-54
2022/12/04 10:51:49;;;;;;;129.03;44.73;;;1.20;99.90;;;;;;5247983;28;20192;-50
2022/12/04 10:54:21;;;;;;;112.90;42.73;;;1.20;99.90;;;;;;5234064;28;20539;-49
2022/12/04 10:56:57;;;;;;;149.37;45.50;;;1.20;99.90;;;;;;5232652;28;20446;-49
2022/12/04 10:59:28;;;;;;;126.00;43.90;;;1.30;99.90;;;;;;5236501;28;20433;-51
2022/12/04 11:02:15;;;;;;;128.63;46.20;;;1.20;99.90;;;;;;5234520;28;20500;-50
2022/12/04 11:04:57;;;;;;;122.07;43.83;;;1.20;99.90;;;;;;5228186;28;20680;-53
2022/12/04 11:07:43;;;;;;;130.00;42.87;;;1.20;99.90;;;;;;5231702;28;20448;-55
2022/12/04 11:10:31;;;;;;;148.80;42.70;;;1.30;99.90;;;;;;5220375;28;20962;-51
2022/12/04 11:13:04;;;;;;;128.07;43.80;;;1.30;99.90;;;;;;5212751;28;20491;-49
2022/12/04 11:15:41;;;;;;;123.93;43.07;;;1.40;99.90;;;;;;5235121;28;20435;-50
2022/12/04 11:18:21;;;;;;;110.47;42.50;;;1.30;99.90;;;;;;5231102;28;20819;-50
2022/12/04 11:20:58;;;;;;;111.53;43.90;;;1.40;99.90;;;;;;5233372;28;20433;-50
2022/12/04 11:23:41;;;;;;;121.23;42.97;;;1.40;99.90;;;;;;5224135;28;20934;-51
2022/12/04 11:26:13;;;;;;;118.67;43.17;;;1.40;99.90;;;;;;5235383;28;20441;-52
2022/12/04 11:28:52;;;;;;;123.50;44.37;;;1.40;99.90;;;;;;5219967;28;20801;-52
2022/12/04 11:31:23;;;;;;;118.53;41.43;;;1.40;99.90;;;;;;5240121;28;20439;-50
2022/12/04 11:33:57;;;;;;;134.33;43.67;;;1.50;99.90;;;;;;5224738;28;20586;-51
2022/12/04 11:36:39;;;;;;;129.23;45.00;;;1.40;99.90;;;;;;5223186;28;20887;-50
2022/12/04 11:39:16;;;;;;;118.33;42.63;;;1.40;99.90;;;;;;5212963;28;20433;-50
2022/12/04 11:42:01;;;;;;;121.53;42.27;;;1.40;99.90;;;;;;5215730;28;20443;-51
2022/12/04 11:44:33;;;;;;;112.67;38.57;;;1.50;99.90;;;;;;5231749;28;20557;-50
2022/12/04 11:47:14;;;;;;;115.57;40.43;;;1.40;99.90;;;;;;5216758;28;20426;-51
2022/12/04 11:49:56;;;;;;;118.87;42.00;;;1.40;99.90;;;;;;5225299;28;20442;-52
2022/12/04 11:52:58;;;;;;;104.60;42.50;;;1.40;99.90;;;;;;5231116;28;20434;-52
2022/12/04 11:55:48;;;;;;;109.27;41.07;;;1.40;99.90;;;;;;5225510;28;20428;-50
2022/12/04 11:58:49;;;;;;;113.67;39.53;;;1.40;99.90;;;;;;5230315;28;20485;-50
2022/12/04 12:01:43;;;;;;;100.73;38.63;;;1.40;99.90;;;;;;5238012;28;20442;-52
2022/12/04 12:04:14;;;;;;;100.43;40.23;;;1.40;99.90;;;;;;5234616;28;20467;-51
2022/12/04 12:06:47;;;;;;;117.33;39.27;;;1.50;99.90;;;;;;5239466;28;20856;-51
2022/12/04 12:09:32;;;;;;;101.03;38.67;;;1.50;99.90;;;;;;5217794;28;20271;-50
2022/12/04 12:12:23;;;;;;;118.93;40.07;;;1.50;99.90;;;;;;5223064;28;20463;-50
2022/12/04 12:15:20;;;;;;;129.60;42.57;;;1.50;99.90;;;;;;5243393;28;20579;-50
2022/12/04 12:18:15;;;;;;;105.43;39.67;;;1.50;99.90;;;;;;5259712;28;20883;-50
2022/12/04 12:21:44;;;;;;;123.67;41.93;;;1.50;99.90;;;;;;5240690;28;20480;-49
2022/12/04 12:24:28;;;;;;;120.43;39.17;;;1.40;99.90;;;;;;5212282;28;20513;-49
2022/12/04 12:27:20;;;;;;;129.40;42.20;;;1.40;99.90;;;;;;5223984;28;20755;-49
2022/12/04 12:30:09;;;;;;;117.13;40.70;;;1.40;99.90;;;;;;5239197;28;20519;-51
2022/12/04 12:32:58;;;;;;;112.10;43.20;;;1.30;99.90;;;;;;5241417;28;20448;-49
2022/12/04 12:35:34;;;;;;;139.80;44.30;;;1.40;99.90;;;;;;5219872;28;20530;-49
2022/12/04 12:38:16;;;;;;;129.03;45.23;;;1.40;99.90;;;;;;5213819;28;20432;-49
2022/12/04 12:41:00;;;;;;;108.53;41.60;;;1.40;99.90;;;;;;5236443;28;20444;-49
2022/12/04 12:43:34;;;;;;;121.00;40.60;;;1.40;99.90;;;;;;5224427;28;22445;-48
2022/12/04 12:46:09;;;;;;;109.67;43.33;;;1.40;99.90;;;;;;5225783;28;20534;-49
2022/12/04 12:49:11;;;;;;;110.83;41.20;;;1.40;99.90;;;;;;5227354;28;20518;-49
2022/12/04 12:52:00;;;;;;;115.67;42.17;;;1.40;99.90;;;;;;5237860;28;20444;-49
2022/12/04 12:54:57;;;;;;;124.17;42.10;;;1.40;99.90;;;;;;5227420;28;20468;-53
2022/12/04 12:57:37;;;;;;;99.10;40.13;;;1.40;99.90;;;;;;5222131;28;20438;-48
2022/12/04 13:00:14;;;;;;;106.23;41.23;;;1.40;99.90;;;;;;5233534;28;20435;-50
2022/12/04 13:02:52;;;;;;;110.23;40.67;;;1.50;99.90;;;;;;5220033;28;20537;-51
2022/12/04 13:05:45;;;;;;;112.87;40.20;;;1.40;99.90;;;;;;5238678;28;20428;-51
2022/12/04 13:08:24;;;;;;;108.07;40.90;;;1.40;99.90;;;;;;5225307;28;21037;-51
2022/12/04 13:11:03;;;;;;;114.90;43.77;;;1.40;99.90;;;;;;5217986;28;20514;-51
2022/12/04 13:13:41;;;;;;;127.07;42.10;;;1.40;99.90;;;;;;5243506;28;20498;-50
2022/12/04 13:16:40;;;;;;;120.00;43.10;;;1.50;99.90;;;;;;5223620;28;20577;-48
2022/12/04 13:19:31;;;;;;;103.13;38.70;;;1.40;99.90;;;;;;5222967;28;20524;-52
2022/12/04 13:22:47;;;;;;;115.87;43.70;;;1.40;99.90;;;;;;5235687;28;20532;-51
2022/12/04 13:25:41;;;;;;;123.77;44.90;;;1.40;99.90;;;;;;5241224;28;20454;-51
2022/12/04 13:28:44;;;;;;;120.97;43.40;;;1.40;99.90;;;;;;5221608;28;20441;-49